sensor_id;sensor_type;location;lat;lon;timestamp;noise_LAeq;noise_LA_min;noise_LA_max;noise_LA01;noise_LA95
70454;Laerm;57915;47.174;14.680;2023-04-25T00:00:37;44.97;42.24;48.53;;
70454;Laerm;57915;47.174;14.680;2023-04-25T00:01:38;44.90;40.89;53.01;;
70454;Laerm;57915;47.174;14.680;2023-04-25T00:02:39;43.03;41.38;45.39;;
70454;Laerm;57915;47.174;14.680;2023-04-25T00:03:40;44.07;42.28;46.78;;
70454;Laerm;57915;47.174;14.680;2023-04-25T00:04:41;57.87;41.16;70.14;;
70454;Laerm;57915;47.174;14.680;2023-04-25T00:05:42;42.22;40.80;43.52;;
70454;Laerm;57915;47.174;14.680;2023-04-25T00:06:44;42.39;40.90;53.44;;
70454;Laerm;57915;47.174;14.680;2023-04-25T00:07:44;43.95;41.77;46.82;;
70454;Laerm;57915;47.174;14.680;2023-04-25T00:08:47;43.89;42.03;45.60;;
70454;Laerm;57915;47.174;14.680;2023-04-25T00:09:48;42.85;41.31;45.25;;
70454;Laerm;57915;47.174;14.680;2023-04-25T00:10:52;48.57;41.76;58.34;;
70454;Laerm;57915;47.174;14.680;2023-04-25T00:11:52;44.67;42.03;51.17;;
70454;Laerm;57915;47.174;14.680;2023-04-25T00:12:54;44.04;41.89;47.66;;
70454;Laerm;57915;47.174;14.680;2023-04-25T00:13:54;44.05;42.42;45.96;;
70454;Laerm;57915;47.174;14.680;2023-04-25T00:14:56;43.51;41.84;49.84;;
70454;Laerm;57915;47.174;14.680;2023-04-25T00:15:57;42.90;41.34;44.74;;
70454;Laerm;57915;47.174;14.680;2023-04-25T00:16:58;43.04;41.79;44.54;;
70454;Laerm;57915;47.174;14.680;2023-04-25T00:17:59;42.89;41.71;44.06;;
70454;Laerm;57915;47.174;14.680;2023-04-25T00:19:01;42.92;41.40;44.83;;
70454;Laerm;57915;47.174;14.680;2023-04-25T00:20:02;43.23;41.46;47.71;;
70454;Laerm;57915;47.174;14.680;2023-04-25T00:21:07;43.34;41.83;47.57;;
70454;Laerm;57915;47.174;14.680;2023-04-25T00:22:08;43.10;41.71;47.06;;
70454;Laerm;57915;47.174;14.680;2023-04-25T00:23:09;43.87;41.87;45.88;;
70454;Laerm;57915;47.174;14.680;2023-04-25T00:24:10;44.42;42.61;46.97;;
70454;Laerm;57915;47.174;14.680;2023-04-25T00:25:12;45.10;42.85;48.28;;
70454;Laerm;57915;47.174;14.680;2023-04-25T00:26:14;44.22;42.47;46.03;;
70454;Laerm;57915;47.174;14.680;2023-04-25T00:27:15;44.81;43.13;46.77;;
70454;Laerm;57915;47.174;14.680;2023-04-25T00:28:16;44.61;42.49;47.01;;
70454;Laerm;57915;47.174;14.680;2023-04-25T00:29:17;42.84;41.42;46.98;;
70454;Laerm;57915;47.174;14.680;2023-04-25T00:30:18;41.94;40.66;46.96;;
70454;Laerm;57915;47.174;14.680;2023-04-25T00:31:19;41.81;40.46;44.13;;
70454;Laerm;57915;47.174;14.680;2023-04-25T00:32:20;41.88;40.69;43.77;;
70454;Laerm;57915;47.174;14.680;2023-04-25T00:33:21;42.28;40.80;46.76;;
70454;Laerm;57915;47.174;14.680;2023-04-25T00:34:22;42.18;40.66;45.06;;
70454;Laerm;57915;47.174;14.680;2023-04-25T00:35:23;43.12;41.34;46.59;;
70454;Laerm;57915;47.174;14.680;2023-04-25T00:36:24;44.43;41.48;47.46;;
70454;Laerm;57915;47.174;14.680;2023-04-25T00:37:26;43.51;41.49;45.46;;
70454;Laerm;57915;47.174;14.680;2023-04-25T00:38:26;44.03;42.12;47.36;;
70454;Laerm;57915;47.174;14.680;2023-04-25T00:39:28;43.72;41.23;48.21;;
70454;Laerm;57915;47.174;14.680;2023-04-25T00:40:28;41.89;40.74;42.98;;
70454;Laerm;57915;47.174;14.680;2023-04-25T00:41:31;43.49;41.24;47.37;;
70454;Laerm;57915;47.174;14.680;2023-04-25T00:42:32;43.13;41.77;45.77;;
70454;Laerm;57915;47.174;14.680;2023-04-25T00:43:35;42.87;41.41;46.35;;
70454;Laerm;57915;47.174;14.680;2023-04-25T00:44:36;43.37;41.25;45.12;;
70454;Laerm;57915;47.174;14.680;2023-04-25T00:45:39;42.80;40.98;46.71;;
70454;Laerm;57915;47.174;14.680;2023-04-25T00:46:39;45.16;41.44;51.03;;
70454;Laerm;57915;47.174;14.680;2023-04-25T00:47:41;48.13;40.76;61.07;;
70454;Laerm;57915;47.174;14.680;2023-04-25T00:48:42;53.37;40.98;66.72;;
70454;Laerm;57915;47.174;14.680;2023-04-25T00:49:43;41.95;40.82;43.80;;
70454;Laerm;57915;47.174;14.680;2023-04-25T00:50:44;42.57;40.62;47.81;;
70454;Laerm;57915;47.174;14.680;2023-04-25T00:51:49;41.41;40.47;42.64;;
70454;Laerm;57915;47.174;14.680;2023-04-25T00:52:49;41.59;40.68;44.76;;
70454;Laerm;57915;47.174;14.680;2023-04-25T00:53:51;42.40;40.88;44.60;;
70454;Laerm;57915;47.174;14.680;2023-04-25T00:54:52;42.54;41.20;44.23;;
70454;Laerm;57915;47.174;14.680;2023-04-25T00:55:53;45.51;41.54;53.37;;
70454;Laerm;57915;47.174;14.680;2023-04-25T00:56:55;49.58;42.25;57.37;;
70454;Laerm;57915;47.174;14.680;2023-04-25T00:57:57;57.93;42.42;71.48;;
70454;Laerm;57915;47.174;14.680;2023-04-25T00:58:58;43.67;41.75;46.24;;
70454;Laerm;57915;47.174;14.680;2023-04-25T00:59:59;42.65;41.49;43.82;;
70454;Laerm;57915;47.174;14.680;2023-04-25T01:01:00;43.04;41.59;44.58;;
70454;Laerm;57915;47.174;14.680;2023-04-25T01:02:04;43.42;41.65;50.35;;
70454;Laerm;57915;47.174;14.680;2023-04-25T01:03:05;43.20;41.59;46.08;;
70454;Laerm;57915;47.174;14.680;2023-04-25T01:04:06;42.55;41.31;44.05;;
70454;Laerm;57915;47.174;14.680;2023-04-25T01:05:07;43.26;41.38;46.80;;
70454;Laerm;57915;47.174;14.680;2023-04-25T01:06:09;43.19;42.03;46.00;;
70454;Laerm;57915;47.174;14.680;2023-04-25T01:07:10;43.55;42.15;45.05;;
70454;Laerm;57915;47.174;14.680;2023-04-25T01:08:12;43.50;41.65;44.94;;
70454;Laerm;57915;47.174;14.680;2023-04-25T01:09:12;43.60;42.14;46.22;;
70454;Laerm;57915;47.174;14.680;2023-04-25T01:10:14;44.04;42.64;48.15;;
70454;Laerm;57915;47.174;14.680;2023-04-25T01:11:15;43.28;41.83;45.11;;
70454;Laerm;57915;47.174;14.680;2023-04-25T01:12:18;42.96;41.71;44.79;;
70454;Laerm;57915;47.174;14.680;2023-04-25T01:13:18;47.21;43.17;52.32;;
70454;Laerm;57915;47.174;14.680;2023-04-25T01:14:20;44.27;42.39;48.23;;
70454;Laerm;57915;47.174;14.680;2023-04-25T01:15:20;44.13;42.34;46.19;;
70454;Laerm;57915;47.174;14.680;2023-04-25T01:16:22;43.37;42.29;44.64;;
70454;Laerm;57915;47.174;14.680;2023-04-25T01:17:24;43.68;42.28;45.51;;
70454;Laerm;57915;47.174;14.680;2023-04-25T01:18:25;44.13;42.90;48.39;;
70454;Laerm;57915;47.174;14.680;2023-04-25T01:19:27;44.50;42.75;47.32;;
70454;Laerm;57915;47.174;14.680;2023-04-25T01:20:27;54.13;44.30;65.31;;
70454;Laerm;57915;47.174;14.680;2023-04-25T01:21:31;50.13;43.90;58.34;;
70454;Laerm;57915;47.174;14.680;2023-04-25T01:22:32;45.20;43.07;46.96;;
70454;Laerm;57915;47.174;14.680;2023-04-25T01:23:33;47.96;44.73;54.94;;
70454;Laerm;57915;47.174;14.680;2023-04-25T01:24:34;53.99;45.37;61.74;;
70454;Laerm;57915;47.174;14.680;2023-04-25T01:25:36;45.53;43.25;48.51;;
70454;Laerm;57915;47.174;14.680;2023-04-25T01:26:37;45.65;43.83;48.48;;
70454;Laerm;57915;47.174;14.680;2023-04-25T01:27:39;45.77;44.03;47.66;;
70454;Laerm;57915;47.174;14.680;2023-04-25T01:28:40;46.20;44.24;48.10;;
70454;Laerm;57915;47.174;14.680;2023-04-25T01:29:42;46.21;43.65;48.74;;
70454;Laerm;57915;47.174;14.680;2023-04-25T01:30:42;45.21;43.52;54.02;;
70454;Laerm;57915;47.174;14.680;2023-04-25T01:31:44;49.32;43.77;56.11;;
70454;Laerm;57915;47.174;14.680;2023-04-25T01:32:45;45.11;43.21;47.64;;
70454;Laerm;57915;47.174;14.680;2023-04-25T01:33:46;44.48;42.74;46.92;;
70454;Laerm;57915;47.174;14.680;2023-04-25T01:34:47;44.80;43.35;46.95;;
70454;Laerm;57915;47.174;14.680;2023-04-25T01:35:48;45.33;43.72;47.26;;
70454;Laerm;57915;47.174;14.680;2023-04-25T01:47:19;46.10;44.20;49.24;;
70454;Laerm;57915;47.174;14.680;2023-04-25T01:48:20;53.81;43.24;65.87;;
70454;Laerm;57915;47.174;14.680;2023-04-25T01:49:21;44.78;43.33;46.59;;
70454;Laerm;57915;47.174;14.680;2023-04-25T01:50:23;45.46;43.73;51.35;;
70454;Laerm;57915;47.174;14.680;2023-04-25T01:51:24;45.08;42.73;51.59;;
70454;Laerm;57915;47.174;14.680;2023-04-25T01:52:25;44.26;42.91;46.98;;
70454;Laerm;57915;47.174;14.680;2023-04-25T01:53:26;43.67;42.36;45.10;;
70454;Laerm;57915;47.174;14.680;2023-04-25T01:54:27;43.32;41.87;58.57;;
70454;Laerm;57915;47.174;14.680;2023-04-25T01:55:28;43.48;41.99;47.40;;
70454;Laerm;57915;47.174;14.680;2023-04-25T01:56:30;44.04;42.15;49.15;;
70454;Laerm;57915;47.174;14.680;2023-04-25T01:57:30;47.23;43.62;53.71;;
70454;Laerm;57915;47.174;14.680;2023-04-25T01:58:32;49.91;43.81;57.66;;
70454;Laerm;57915;47.174;14.680;2023-04-25T01:59:38;44.96;43.32;47.18;;
70454;Laerm;57915;47.174;14.680;2023-04-25T02:00:40;45.29;43.29;47.74;;
70454;Laerm;57915;47.174;14.680;2023-04-25T02:01:40;45.09;43.43;47.84;;
70454;Laerm;57915;47.174;14.680;2023-04-25T02:02:43;46.15;43.08;59.01;;
70454;Laerm;57915;47.174;14.680;2023-04-25T02:03:44;57.18;44.67;69.02;;
70454;Laerm;57915;47.174;14.680;2023-04-25T02:04:45;45.86;42.29;53.56;;
70454;Laerm;57915;47.174;14.680;2023-04-25T02:05:46;43.12;41.57;48.70;;
70454;Laerm;57915;47.174;14.680;2023-04-25T02:06:49;57.17;41.72;69.32;;
70454;Laerm;57915;47.174;14.680;2023-04-25T02:07:49;57.38;42.48;70.19;;
70454;Laerm;57915;47.174;14.680;2023-04-25T02:08:51;54.32;44.48;65.46;;
70454;Laerm;57915;47.174;14.680;2023-04-25T02:09:51;50.18;42.79;65.40;;
70454;Laerm;57915;47.174;14.680;2023-04-25T02:10:53;61.83;42.86;71.18;;
70454;Laerm;57915;47.174;14.680;2023-04-25T02:11:53;43.81;42.33;45.59;;
70454;Laerm;57915;47.174;14.680;2023-04-25T02:12:55;58.89;42.69;70.98;;
70454;Laerm;57915;47.174;14.680;2023-04-25T02:13:56;59.64;45.10;70.79;;
70454;Laerm;57915;47.174;14.680;2023-04-25T02:14:58;61.38;44.42;71.92;;
70454;Laerm;57915;47.174;14.680;2023-04-25T02:15:58;45.49;43.64;47.90;;
70454;Laerm;57915;47.174;14.680;2023-04-25T02:17:00;45.61;43.24;51.91;;
70454;Laerm;57915;47.174;14.680;2023-04-25T02:18:02;57.78;43.74;69.12;;
70454;Laerm;57915;47.174;14.680;2023-04-25T02:19:03;44.41;42.91;47.36;;
70454;Laerm;57915;47.174;14.680;2023-04-25T02:20:04;45.32;43.27;49.45;;
70454;Laerm;57915;47.174;14.680;2023-04-25T02:21:06;46.04;44.46;48.04;;
70454;Laerm;57915;47.174;14.680;2023-04-25T02:22:11;45.95;44.38;47.64;;
70454;Laerm;57915;47.174;14.680;2023-04-25T02:23:12;44.96;43.16;49.06;;
70454;Laerm;57915;47.174;14.680;2023-04-25T02:24:15;43.89;42.30;46.38;;
70454;Laerm;57915;47.174;14.680;2023-04-25T02:25:16;47.49;42.73;63.64;;
70454;Laerm;57915;47.174;14.680;2023-04-25T02:26:17;50.14;42.75;65.45;;
70454;Laerm;57915;47.174;14.680;2023-04-25T02:27:18;49.46;43.01;65.94;;
70454;Laerm;57915;47.174;14.680;2023-04-25T02:28:19;47.46;42.93;62.15;;
70454;Laerm;57915;47.174;14.680;2023-04-25T02:29:20;52.21;44.78;67.01;;
70454;Laerm;57915;47.174;14.680;2023-04-25T02:30:21;50.77;42.79;68.03;;
70454;Laerm;57915;47.174;14.680;2023-04-25T02:31:22;50.86;42.78;67.20;;
70454;Laerm;57915;47.174;14.680;2023-04-25T02:32:23;49.76;43.55;68.66;;
70454;Laerm;57915;47.174;14.680;2023-04-25T02:33:25;51.04;43.72;69.39;;
70454;Laerm;57915;47.174;14.680;2023-04-25T02:34:27;61.78;43.13;72.96;;
70454;Laerm;57915;47.174;14.680;2023-04-25T02:35:27;51.75;42.71;65.96;;
70454;Laerm;57915;47.174;14.680;2023-04-25T02:36:29;59.77;44.03;68.84;;
70454;Laerm;57915;47.174;14.680;2023-04-25T02:37:32;59.87;43.06;71.40;;
70454;Laerm;57915;47.174;14.680;2023-04-25T02:38:34;62.53;45.82;70.01;;
70454;Laerm;57915;47.174;14.680;2023-04-25T02:39:34;46.97;42.85;60.05;;
70454;Laerm;57915;47.174;14.680;2023-04-25T02:40:36;59.01;42.53;72.67;;
70454;Laerm;57915;47.174;14.680;2023-04-25T02:41:36;57.20;42.90;68.89;;
70454;Laerm;57915;47.174;14.680;2023-04-25T02:42:38;57.55;43.23;68.21;;
70454;Laerm;57915;47.174;14.680;2023-04-25T02:43:40;52.96;43.27;67.69;;
70454;Laerm;57915;47.174;14.680;2023-04-25T02:44:41;58.99;45.47;70.42;;
70454;Laerm;57915;47.174;14.680;2023-04-25T02:45:42;52.51;43.10;66.39;;
70454;Laerm;57915;47.174;14.680;2023-04-25T02:46:44;51.86;42.81;66.89;;
70454;Laerm;57915;47.174;14.680;2023-04-25T02:47:44;58.22;42.70;70.12;;
70454;Laerm;57915;47.174;14.680;2023-04-25T02:48:47;53.26;43.01;68.46;;
70454;Laerm;57915;47.174;14.680;2023-04-25T02:49:48;59.22;44.49;68.80;;
70454;Laerm;57915;47.174;14.680;2023-04-25T02:50:49;61.87;45.75;74.70;;
70454;Laerm;57915;47.174;14.680;2023-04-25T02:51:49;56.77;46.42;66.87;;
70454;Laerm;57915;47.174;14.680;2023-04-25T02:52:51;57.53;44.50;67.98;;
70454;Laerm;57915;47.174;14.680;2023-04-25T02:53:51;52.52;45.06;68.56;;
70454;Laerm;57915;47.174;14.680;2023-04-25T02:54:53;55.87;45.38;67.92;;
70454;Laerm;57915;47.174;14.680;2023-04-25T02:55:53;54.00;45.21;68.72;;
70454;Laerm;57915;47.174;14.680;2023-04-25T02:56:58;60.81;44.95;72.62;;
70454;Laerm;57915;47.174;14.680;2023-04-25T02:57:58;53.35;44.11;69.02;;
70454;Laerm;57915;47.174;14.680;2023-04-25T02:59:00;53.91;43.95;67.75;;
70454;Laerm;57915;47.174;14.680;2023-04-25T03:00:00;59.21;43.64;70.88;;
70454;Laerm;57915;47.174;14.680;2023-04-25T03:01:02;59.50;43.79;71.30;;
70454;Laerm;57915;47.174;14.680;2023-04-25T03:02:02;53.53;43.61;67.48;;
70454;Laerm;57915;47.174;14.680;2023-04-25T03:03:04;58.87;45.09;70.65;;
70454;Laerm;57915;47.174;14.680;2023-04-25T03:04:06;61.59;47.35;69.34;;
70454;Laerm;57915;47.174;14.680;2023-04-25T03:05:07;63.06;48.77;73.20;;
70454;Laerm;57915;47.174;14.680;2023-04-25T03:06:08;63.19;48.13;80.59;;
70454;Laerm;57915;47.174;14.680;2023-04-25T03:07:09;58.67;45.29;70.32;;
70454;Laerm;57915;47.174;14.680;2023-04-25T03:08:10;61.79;45.58;70.79;;
70454;Laerm;57915;47.174;14.680;2023-04-25T03:09:11;54.18;45.29;67.57;;
70454;Laerm;57915;47.174;14.680;2023-04-25T03:10:12;55.11;46.68;66.54;;
70454;Laerm;57915;47.174;14.680;2023-04-25T03:11:13;60.06;45.43;72.20;;
70454;Laerm;57915;47.174;14.680;2023-04-25T03:12:14;60.71;45.61;73.69;;
70454;Laerm;57915;47.174;14.680;2023-04-25T03:13:15;60.58;46.44;70.47;;
70454;Laerm;57915;47.174;14.680;2023-04-25T03:14:16;63.59;49.21;70.48;;
70454;Laerm;57915;47.174;14.680;2023-04-25T03:15:17;58.98;46.39;68.72;;
70454;Laerm;57915;47.174;14.680;2023-04-25T03:16:18;60.18;46.62;70.63;;
70454;Laerm;57915;47.174;14.680;2023-04-25T03:17:20;60.91;45.33;70.77;;
70454;Laerm;57915;47.174;14.680;2023-04-25T03:18:20;61.01;45.77;72.54;;
70454;Laerm;57915;47.174;14.680;2023-04-25T03:19:23;57.75;45.71;72.78;;
70454;Laerm;57915;47.174;14.680;2023-04-25T03:20:26;61.06;46.48;71.11;;
70454;Laerm;57915;47.174;14.680;2023-04-25T03:21:28;58.28;46.77;67.99;;
70454;Laerm;57915;47.174;14.680;2023-04-25T03:22:28;60.43;46.93;70.85;;
70454;Laerm;57915;47.174;14.680;2023-04-25T03:23:30;55.39;46.33;64.00;;
70454;Laerm;57915;47.174;14.680;2023-04-25T03:24:30;51.63;46.16;58.13;;
70454;Laerm;57915;47.174;14.680;2023-04-25T03:25:32;60.06;49.10;70.28;;
70454;Laerm;57915;47.174;14.680;2023-04-25T03:26:32;50.03;45.91;59.08;;
70454;Laerm;57915;47.174;14.680;2023-04-25T03:27:34;48.97;44.54;56.92;;
70454;Laerm;57915;47.174;14.680;2023-04-25T03:28:36;61.04;45.23;71.61;;
70454;Laerm;57915;47.174;14.680;2023-04-25T03:29:38;59.64;44.16;73.73;;
70454;Laerm;57915;47.174;14.680;2023-04-25T03:30:38;61.62;44.87;74.22;;
70454;Laerm;57915;47.174;14.680;2023-04-25T03:31:39;60.51;46.08;70.23;;
70454;Laerm;57915;47.174;14.680;2023-04-25T03:32:40;63.05;47.09;70.80;;
70454;Laerm;57915;47.174;14.680;2023-04-25T03:33:41;61.47;46.55;76.14;;
70454;Laerm;57915;47.174;14.680;2023-04-25T03:34:43;56.91;45.65;66.61;;
70454;Laerm;57915;47.174;14.680;2023-04-25T03:35:45;64.37;54.72;70.90;;
70454;Laerm;57915;47.174;14.680;2023-04-25T03:36:45;60.33;48.16;69.44;;
70454;Laerm;57915;47.174;14.680;2023-04-25T03:37:47;60.77;47.05;69.67;;
70454;Laerm;57915;47.174;14.680;2023-04-25T03:38:47;57.91;46.34;68.53;;
70454;Laerm;57915;47.174;14.680;2023-04-25T03:39:50;62.62;46.90;72.46;;
70454;Laerm;57915;47.174;14.680;2023-04-25T03:40:51;63.18;46.43;71.28;;
70454;Laerm;57915;47.174;14.680;2023-04-25T03:41:53;62.37;48.93;71.14;;
70454;Laerm;57915;47.174;14.680;2023-04-25T03:42:53;54.17;46.27;65.49;;
70454;Laerm;57915;47.174;14.680;2023-04-25T03:43:54;59.40;45.99;70.70;;
70454;Laerm;57915;47.174;14.680;2023-04-25T03:44:55;64.44;46.50;77.57;;
70454;Laerm;57915;47.174;14.680;2023-04-25T03:45:56;60.25;54.55;75.22;;
70454;Laerm;57915;47.174;14.680;2023-04-25T03:46:57;68.12;53.90;89.07;;
70454;Laerm;57915;47.174;14.680;2023-04-25T03:47:58;57.13;46.62;66.96;;
70454;Laerm;57915;47.174;14.680;2023-04-25T03:48:59;51.01;45.45;63.71;;
70454;Laerm;57915;47.174;14.680;2023-04-25T03:50:02;53.22;45.69;66.22;;
70454;Laerm;57915;47.174;14.680;2023-04-25T03:51:03;63.57;46.37;72.13;;
70454;Laerm;57915;47.174;14.680;2023-04-25T03:52:04;48.95;44.63;58.30;;
70454;Laerm;57915;47.174;14.680;2023-04-25T03:53:05;63.79;45.44;73.09;;
70454;Laerm;57915;47.174;14.680;2023-04-25T03:54:12;59.72;43.73;70.89;;
70454;Laerm;57915;47.174;14.680;2023-04-25T03:55:12;53.53;44.71;65.34;;
70454;Laerm;57915;47.174;14.680;2023-04-25T03:56:14;56.93;46.28;69.14;;
70454;Laerm;57915;47.174;14.680;2023-04-25T03:57:14;58.04;46.52;67.02;;
70454;Laerm;57915;47.174;14.680;2023-04-25T03:58:16;55.44;46.00;67.41;;
70454;Laerm;57915;47.174;14.680;2023-04-25T03:59:16;53.05;45.78;66.89;;
70454;Laerm;57915;47.174;14.680;2023-04-25T04:00:18;58.91;44.48;70.86;;
70454;Laerm;57915;47.174;14.680;2023-04-25T04:01:19;58.65;44.85;72.48;;
70454;Laerm;57915;47.174;14.680;2023-04-25T04:02:20;59.46;44.90;70.85;;
70454;Laerm;57915;47.174;14.680;2023-04-25T04:03:21;55.52;45.92;66.33;;
70454;Laerm;57915;47.174;14.680;2023-04-25T04:04:22;61.93;46.25;72.93;;
70454;Laerm;57915;47.174;14.680;2023-04-25T04:05:24;57.96;46.81;68.58;;
70454;Laerm;57915;47.174;14.680;2023-04-25T04:06:26;61.06;45.69;73.10;;
70454;Laerm;57915;47.174;14.680;2023-04-25T04:07:26;51.04;45.24;63.15;;
70454;Laerm;57915;47.174;14.680;2023-04-25T04:08:28;56.78;45.38;68.98;;
70454;Laerm;57915;47.174;14.680;2023-04-25T04:09:28;61.45;45.01;71.80;;
70454;Laerm;57915;47.174;14.680;2023-04-25T04:10:30;57.01;45.61;68.83;;
70454;Laerm;57915;47.174;14.680;2023-04-25T04:11:30;59.80;45.08;72.14;;
70454;Laerm;57915;47.174;14.680;2023-04-25T04:12:32;59.73;48.05;68.97;;
70454;Laerm;57915;47.174;14.680;2023-04-25T04:13:32;60.05;46.02;72.17;;
70454;Laerm;57915;47.174;14.680;2023-04-25T04:14:34;62.66;48.88;72.14;;
70454;Laerm;57915;47.174;14.680;2023-04-25T04:15:34;59.23;45.83;68.51;;
70454;Laerm;57915;47.174;14.680;2023-04-25T04:16:36;63.51;46.74;72.00;;
70454;Laerm;57915;47.174;14.680;2023-04-25T04:17:36;61.85;46.80;70.63;;
70454;Laerm;57915;47.174;14.680;2023-04-25T04:18:38;60.93;46.07;71.10;;
70454;Laerm;57915;47.174;14.680;2023-04-25T04:19:39;63.96;46.50;73.16;;
70454;Laerm;57915;47.174;14.680;2023-04-25T04:20:41;62.78;46.18;73.70;;
70454;Laerm;57915;47.174;14.680;2023-04-25T04:21:42;62.17;48.63;74.61;;
70454;Laerm;57915;47.174;14.680;2023-04-25T04:22:44;60.53;48.41;69.11;;
70454;Laerm;57915;47.174;14.680;2023-04-25T04:23:44;51.90;45.94;62.07;;
70454;Laerm;57915;47.174;14.680;2023-04-25T04:24:46;51.05;46.17;63.14;;
70454;Laerm;57915;47.174;14.680;2023-04-25T04:25:47;58.26;46.03;68.66;;
70454;Laerm;57915;47.174;14.680;2023-04-25T04:26:49;60.07;45.66;71.03;;
70454;Laerm;57915;47.174;14.680;2023-04-25T04:27:53;60.27;45.25;73.69;;
70454;Laerm;57915;47.174;14.680;2023-04-25T04:28:54;53.90;44.99;64.85;;
70454;Laerm;57915;47.174;14.680;2023-04-25T04:29:55;54.55;46.68;67.34;;
70454;Laerm;57915;47.174;14.680;2023-04-25T04:30:57;59.24;47.22;69.30;;
70454;Laerm;57915;47.174;14.680;2023-04-25T04:31:58;61.46;49.00;70.79;;
70454;Laerm;57915;47.174;14.680;2023-04-25T04:33:01;57.18;46.64;68.17;;
70454;Laerm;57915;47.174;14.680;2023-04-25T04:34:01;63.03;45.54;75.48;;
70454;Laerm;57915;47.174;14.680;2023-04-25T04:35:03;55.92;45.76;68.37;;
70454;Laerm;57915;47.174;14.680;2023-04-25T04:36:06;61.58;50.07;70.22;;
70454;Laerm;57915;47.174;14.680;2023-04-25T04:37:08;62.01;45.55;72.73;;
70454;Laerm;57915;47.174;14.680;2023-04-25T04:38:09;59.84;45.74;70.77;;
70454;Laerm;57915;47.174;14.680;2023-04-25T04:39:12;63.24;45.74;74.79;;
70454;Laerm;57915;47.174;14.680;2023-04-25T04:40:13;63.98;45.91;75.77;;
70454;Laerm;57915;47.174;14.680;2023-04-25T04:41:15;59.46;44.88;72.74;;
70454;Laerm;57915;47.174;14.680;2023-04-25T04:42:16;63.74;46.77;73.17;;
70454;Laerm;57915;47.174;14.680;2023-04-25T04:43:17;51.97;45.61;60.26;;
70454;Laerm;57915;47.174;14.680;2023-04-25T04:44:19;59.16;46.83;69.04;;
70454;Laerm;57915;47.174;14.680;2023-04-25T04:45:20;64.03;46.48;79.62;;
70454;Laerm;57915;47.174;14.680;2023-04-25T04:46:22;58.79;45.05;68.24;;
70454;Laerm;57915;47.174;14.680;2023-04-25T04:47:24;58.42;47.59;68.05;;
70454;Laerm;57915;47.174;14.680;2023-04-25T04:48:30;58.98;45.50;69.44;;
70454;Laerm;57915;47.174;14.680;2023-04-25T04:49:32;61.59;48.13;71.01;;
70454;Laerm;57915;47.174;14.680;2023-04-25T04:50:34;58.40;43.54;70.32;;
70454;Laerm;57915;47.174;14.680;2023-04-25T04:51:37;63.72;46.49;73.28;;
70454;Laerm;57915;47.174;14.680;2023-04-25T04:52:38;60.68;43.21;72.27;;
70454;Laerm;57915;47.174;14.680;2023-04-25T04:53:39;60.88;46.13;72.99;;
70454;Laerm;57915;47.174;14.680;2023-04-25T04:54:40;58.88;43.98;70.52;;
70454;Laerm;57915;47.174;14.680;2023-04-25T04:55:40;58.43;44.50;68.10;;
70454;Laerm;57915;47.174;14.680;2023-04-25T04:56:42;60.71;46.02;72.75;;
70454;Laerm;57915;47.174;14.680;2023-04-25T04:57:43;63.11;48.82;73.21;;
70454;Laerm;57915;47.174;14.680;2023-04-25T04:58:45;62.88;46.29;74.62;;
70454;Laerm;57915;47.174;14.680;2023-04-25T04:59:45;60.17;47.24;70.50;;
70454;Laerm;57915;47.174;14.680;2023-04-25T05:00:47;59.40;47.47;69.37;;
70454;Laerm;57915;47.174;14.680;2023-04-25T05:01:47;63.75;46.41;71.51;;
70454;Laerm;57915;47.174;14.680;2023-04-25T05:02:49;60.52;45.99;70.55;;
70454;Laerm;57915;47.174;14.680;2023-04-25T05:03:49;61.66;46.86;70.86;;
70454;Laerm;57915;47.174;14.680;2023-04-25T05:04:51;61.79;47.19;69.06;;
70454;Laerm;57915;47.174;14.680;2023-04-25T05:05:51;65.52;51.12;71.95;;
70454;Laerm;57915;47.174;14.680;2023-04-25T05:06:54;62.69;49.13;69.99;;
70454;Laerm;57915;47.174;14.680;2023-04-25T05:07:55;62.70;51.45;70.50;;
70454;Laerm;57915;47.174;14.680;2023-04-25T05:08:56;66.26;51.38;72.92;;
70454;Laerm;57915;47.174;14.680;2023-04-25T05:09:57;64.36;48.03;73.68;;
70454;Laerm;57915;47.174;14.680;2023-04-25T05:10:58;60.40;47.11;74.08;;
70454;Laerm;57915;47.174;14.680;2023-04-25T05:12:00;63.11;49.60;72.31;;
70454;Laerm;57915;47.174;14.680;2023-04-25T05:13:01;61.22;49.18;72.15;;
70454;Laerm;57915;47.174;14.680;2023-04-25T05:14:02;62.84;47.15;73.68;;
70454;Laerm;57915;47.174;14.680;2023-04-25T05:15:03;58.80;49.32;66.70;;
70454;Laerm;57915;47.174;14.680;2023-04-25T05:16:05;61.54;49.83;68.22;;
70454;Laerm;57915;47.174;14.680;2023-04-25T05:17:05;63.84;47.41;74.97;;
70454;Laerm;57915;47.174;14.680;2023-04-25T05:18:08;61.99;48.45;72.02;;
70454;Laerm;57915;47.174;14.680;2023-04-25T05:19:09;65.31;52.35;70.97;;
70454;Laerm;57915;47.174;14.680;2023-04-25T05:20:10;64.11;49.72;77.84;;
70454;Laerm;57915;47.174;14.680;2023-04-25T05:21:11;64.82;53.91;73.46;;
70454;Laerm;57915;47.174;14.680;2023-04-25T05:22:14;61.94;47.98;70.95;;
70454;Laerm;57915;47.174;14.680;2023-04-25T05:23:14;64.51;48.17;71.78;;
70454;Laerm;57915;47.174;14.680;2023-04-25T05:24:16;66.27;51.26;73.69;;
70454;Laerm;57915;47.174;14.680;2023-04-25T05:25:19;63.76;53.58;70.09;;
70454;Laerm;57915;47.174;14.680;2023-04-25T05:26:21;63.72;52.24;73.09;;
70454;Laerm;57915;47.174;14.680;2023-04-25T05:27:21;65.90;51.04;72.54;;
70454;Laerm;57915;47.174;14.680;2023-04-25T05:28:23;64.04;52.28;71.83;;
70454;Laerm;57915;47.174;14.680;2023-04-25T05:29:23;66.37;54.10;74.68;;
70454;Laerm;57915;47.174;14.680;2023-04-25T05:30:25;65.17;50.77;76.71;;
70454;Laerm;57915;47.174;14.680;2023-04-25T05:31:25;64.66;49.24;74.69;;
70454;Laerm;57915;47.174;14.680;2023-04-25T05:32:27;62.71;47.37;71.92;;
70454;Laerm;57915;47.174;14.680;2023-04-25T05:33:27;58.70;46.49;70.65;;
70454;Laerm;57915;47.174;14.680;2023-04-25T05:34:29;66.71;51.30;74.06;;
70454;Laerm;57915;47.174;14.680;2023-04-25T05:35:30;61.76;47.61;72.85;;
70454;Laerm;57915;47.174;14.680;2023-04-25T05:36:31;65.16;50.66;73.18;;
70454;Laerm;57915;47.174;14.680;2023-04-25T05:37:34;64.53;47.95;73.41;;
70454;Laerm;57915;47.174;14.680;2023-04-25T05:38:35;61.18;47.34;69.98;;
70454;Laerm;57915;47.174;14.680;2023-04-25T05:39:36;66.00;49.76;75.79;;
70454;Laerm;57915;47.174;14.680;2023-04-25T05:40:37;63.68;48.54;69.94;;
70454;Laerm;57915;47.174;14.680;2023-04-25T05:41:38;64.22;53.36;69.58;;
70454;Laerm;57915;47.174;14.680;2023-04-25T05:42:39;59.52;48.48;68.37;;
70454;Laerm;57915;47.174;14.680;2023-04-25T05:43:40;65.57;51.26;73.08;;
70454;Laerm;57915;47.174;14.680;2023-04-25T05:44:45;64.56;50.09;73.72;;
70454;Laerm;57915;47.174;14.680;2023-04-25T05:45:45;53.73;45.24;68.76;;
70454;Laerm;57915;47.174;14.680;2023-04-25T05:46:47;63.54;48.70;70.09;;
70454;Laerm;57915;47.174;14.680;2023-04-25T05:47:47;61.57;46.22;71.03;;
70454;Laerm;57915;47.174;14.680;2023-04-25T05:48:49;67.13;52.59;74.63;;